createdAt,value
2023-04-16T00:04:43.374Z,18.07
2023-04-16T00:09:46.473Z,18.55
2023-04-16T00:14:50.389Z,17.00
2023-04-16T00:19:53.010Z,17.20
2023-04-16T00:24:55.538Z,17.73
2023-04-16T00:29:59.412Z,17.77
2023-04-16T00:35:01.885Z,18.00
2023-04-16T00:40:05.321Z,17.07
2023-04-16T00:45:11.097Z,17.08
2023-04-16T00:50:13.858Z,17.95
2023-04-16T00:55:18.553Z,18.20
2023-04-16T01:00:22.903Z,17.40
2023-04-16T01:05:25.420Z,17.98
2023-04-16T01:10:27.916Z,18.20
2023-04-16T01:15:32.124Z,17.13
2023-04-16T01:20:37.438Z,17.25
2023-04-16T01:25:40.093Z,17.40
2023-04-16T01:30:42.720Z,16.83
2023-04-16T01:35:46.563Z,18.15
2023-04-16T01:40:49.037Z,14.32
2023-04-16T01:45:51.526Z,17.60
2023-04-16T01:50:55.507Z,18.20
2023-04-16T01:55:58.002Z,18.02
2023-04-16T02:01:00.744Z,17.23
2023-04-16T02:06:04.905Z,16.07
2023-04-16T02:11:07.578Z,18.38
2023-04-16T02:16:10.273Z,17.80
2023-04-16T02:21:14.144Z,15.27
2023-04-16T02:26:17.066Z,18.33
2023-04-16T02:31:19.708Z,17.98
2023-04-16T02:36:23.992Z,17.03
2023-04-16T02:41:26.502Z,17.83
2023-04-16T02:46:29.071Z,18.15
2023-04-16T02:51:33.217Z,15.43
2023-04-16T02:56:35.871Z,18.23
2023-04-16T03:01:38.397Z,18.08
2023-04-16T03:06:42.296Z,18.80
2023-04-16T03:11:44.792Z,17.60
2023-04-16T03:16:47.294Z,19.23
2023-04-16T03:21:51.101Z,17.85
2023-04-16T03:26:53.592Z,17.77
2023-04-16T03:31:56.087Z,18.80
2023-04-16T03:37:00.194Z,19.05
2023-04-16T03:42:03.404Z,18.67
2023-04-16T03:47:06.133Z,18.47
2023-04-16T03:52:11.166Z,17.88
2023-04-16T03:57:13.656Z,18.30
2023-04-16T04:02:16.234Z,17.60
2023-04-16T04:07:20.163Z,17.63
2023-04-16T04:12:22.704Z,18.58
2023-04-16T04:17:25.267Z,18.57
2023-04-16T04:22:29.138Z,18.88
2023-04-16T04:27:31.638Z,19.23
2023-04-16T04:32:34.248Z,17.83
2023-04-16T04:37:38.194Z,19.83
2023-04-16T04:42:40.927Z,19.80
2023-04-16T04:47:43.559Z,19.58
2023-04-16T04:52:47.423Z,19.80
2023-04-16T04:57:49.964Z,19.20
2023-04-16T05:02:52.578Z,18.77
2023-04-16T05:07:56.531Z,18.77
2023-04-16T05:12:59.020Z,18.58
2023-04-16T05:18:01.586Z,19.75
2023-04-16T05:23:05.461Z,19.40
2023-04-16T05:28:08.183Z,20.13
2023-04-16T05:33:10.690Z,18.88
2023-04-16T05:38:14.514Z,15.55
2023-04-16T05:43:17.174Z,18.37
2023-04-16T05:48:20.035Z,19.63
2023-04-16T05:53:23.887Z,18.95
2023-04-16T05:58:26.357Z,17.33
2023-04-16T06:03:28.995Z,18.15
2023-04-16T06:08:32.869Z,19.92
2023-04-16T06:13:35.391Z,18.90
2023-04-16T06:18:37.908Z,18.80
2023-04-16T06:23:41.710Z,16.48
2023-04-16T06:28:44.195Z,20.00
2023-04-16T06:33:46.714Z,18.90
2023-04-16T06:38:50.645Z,18.17
2023-04-16T06:43:53.357Z,17.92
2023-04-16T06:48:55.929Z,17.83
2023-04-16T06:53:59.822Z,16.55
2023-04-16T06:59:02.369Z,17.25
2023-04-16T07:04:05.242Z,17.00
2023-04-16T07:09:09.474Z,16.47
2023-04-16T07:14:12.395Z,16.08
2023-04-16T07:19:14.948Z,16.00
2023-04-16T07:24:18.782Z,15.83
2023-04-16T07:29:21.477Z,16.00
2023-04-16T07:34:24.370Z,15.40
2023-04-16T07:39:28.225Z,16.17
2023-04-16T07:44:30.749Z,15.68
2023-04-16T07:49:33.434Z,14.90
2023-04-16T07:54:37.298Z,13.90
2023-04-16T07:59:39.811Z,15.27
2023-04-16T08:04:42.705Z,15.65
2023-04-16T08:09:51.657Z,13.45
2023-04-16T08:14:54.225Z,14.47
2023-04-16T08:19:56.748Z,13.63
2023-04-16T08:25:00.609Z,13.95
2023-04-16T08:30:03.219Z,13.93
2023-04-16T08:35:06.453Z,13.80
2023-04-16T08:40:11.066Z,11.93
2023-04-16T08:45:16.478Z,12.73
2023-04-16T08:50:24.620Z,11.73
2023-04-16T08:55:36.906Z,10.98
2023-04-16T09:00:40.973Z,12.10
2023-04-16T09:05:44.824Z,12.57
2023-04-16T09:10:49.992Z,13.23
2023-04-16T09:15:54.146Z,13.35
2023-04-16T09:20:57.512Z,11.00
2023-04-16T09:26:01.418Z,12.02
2023-04-16T09:31:09.965Z,11.90
2023-04-16T09:36:12.516Z,10.90
2023-04-16T09:41:17.648Z,10.30
2023-04-16T09:46:20.601Z,10.75
2023-04-16T09:51:23.167Z,10.65
2023-04-16T09:56:27.182Z,10.93
2023-04-16T10:01:31.960Z,10.80
2023-04-16T10:06:35.540Z,9.90
2023-04-16T10:11:40.561Z,10.30
2023-04-16T10:16:43.972Z,10.60
2023-04-16T10:21:46.924Z,23.95
2023-04-16T10:26:52.685Z,12.27
2023-04-16T10:31:56.830Z,10.07
2023-04-16T10:36:59.402Z,10.13
2023-04-16T10:42:10.596Z,9.40
2023-04-16T10:47:14.419Z,9.57
2023-04-16T10:52:17.914Z,16.02
2023-04-16T10:57:21.864Z,9.20
2023-04-16T11:02:29.857Z,9.37
2023-04-16T11:07:34.437Z,8.13
2023-04-16T11:12:39.712Z,8.98
2023-04-16T11:17:44.049Z,10.87
2023-04-16T11:22:46.993Z,9.60
2023-04-16T11:27:51.165Z,9.98
2023-04-16T11:32:53.706Z,10.00
2023-04-16T11:37:57.957Z,9.80
2023-04-16T11:43:04.995Z,9.98
2023-04-16T11:48:10.598Z,8.55
2023-04-16T11:53:13.595Z,9.57
2023-04-16T11:58:17.465Z,9.73
2023-04-16T12:03:20.366Z,8.57
2023-04-16T12:08:31.071Z,12.40
2023-04-16T12:13:40.085Z,9.93
2023-04-16T12:18:59.920Z,9.80
2023-04-16T12:24:02.456Z,16.90
2023-04-16T12:29:17.659Z,9.90
2023-04-16T12:34:21.320Z,12.30
2023-04-16T12:39:23.937Z,11.38
2023-04-16T12:44:29.425Z,9.93
2023-04-16T12:49:32.012Z,9.27
2023-04-16T12:54:34.571Z,9.30
2023-04-16T12:59:38.390Z,9.53
2023-04-16T13:04:41.058Z,10.10
2023-04-16T13:09:43.729Z,9.65
2023-04-16T13:14:47.570Z,8.82
2023-04-16T13:19:50.067Z,8.80
2023-04-16T13:24:52.578Z,10.52
2023-04-16T13:29:56.568Z,9.70
2023-04-16T13:34:59.384Z,8.53
2023-04-16T13:40:01.926Z,9.98
2023-04-16T13:45:06.811Z,10.27
2023-04-16T13:50:09.903Z,9.90
2023-04-16T13:55:13.930Z,10.97
2023-04-16T14:00:19.571Z,10.95
2023-04-16T14:05:24.577Z,12.00
2023-04-16T14:10:28.438Z,14.23
2023-04-16T14:15:32.350Z,11.77
2023-04-16T14:20:34.851Z,11.10
2023-04-16T14:25:37.359Z,10.60
2023-04-16T14:30:41.218Z,10.02
2023-04-16T14:35:43.736Z,10.65
2023-04-16T14:40:46.297Z,10.60
2023-04-16T14:45:50.716Z,10.53
2023-04-16T14:50:54.671Z,10.60
2023-04-16T14:55:58.887Z,11.15
2023-04-16T15:01:03.908Z,10.33
2023-04-16T15:06:06.686Z,9.40
2023-04-16T15:11:09.201Z,9.70
2023-04-16T15:16:13.106Z,11.73
2023-04-16T15:21:15.844Z,9.73
2023-04-16T15:26:18.510Z,10.75
2023-04-16T15:31:22.653Z,8.70
2023-04-16T15:36:26.575Z,9.20
2023-04-16T15:41:30.378Z,9.40
2023-04-16T15:46:34.281Z,8.43
2023-04-16T15:51:37.187Z,9.40
2023-04-16T15:56:39.833Z,9.80
2023-04-16T16:01:43.776Z,9.88
2023-04-16T16:06:46.584Z,9.30
2023-04-16T16:11:49.072Z,8.38
2023-04-16T16:16:52.969Z,9.63
2023-04-16T16:21:55.874Z,9.60
2023-04-16T16:26:58.508Z,7.27
2023-04-16T16:32:02.436Z,9.85
2023-04-16T16:37:05.119Z,10.10
2023-04-16T16:42:09.014Z,8.93
2023-04-16T16:47:13.179Z,10.40
2023-04-16T16:52:15.978Z,10.90
2023-04-16T16:57:20.073Z,10.80
2023-04-16T17:02:24.054Z,10.63
2023-04-16T17:07:27.347Z,11.43
2023-04-16T17:12:29.894Z,10.93
2023-04-16T17:17:33.782Z,11.07
2023-04-16T17:22:36.597Z,11.32
2023-04-16T17:27:42.486Z,11.55
2023-04-16T17:32:46.395Z,12.40
2023-04-16T17:37:48.918Z,12.32
2023-04-16T17:42:51.503Z,13.05
2023-04-16T17:47:55.461Z,12.47
2023-04-16T17:53:03.400Z,12.70
2023-04-16T17:58:06.171Z,12.70
2023-04-16T18:03:11.490Z,13.03
2023-04-16T18:08:14.211Z,12.80
2023-04-16T18:13:16.716Z,12.63
2023-04-16T18:18:21.318Z,12.15
2023-04-16T18:23:23.930Z,12.33
2023-04-16T18:28:27.654Z,12.15
2023-04-16T18:33:48.824Z,12.20
2023-04-16T18:39:01.628Z,12.63
2023-04-16T18:44:05.201Z,12.60
2023-04-16T18:49:09.377Z,11.90
2023-04-16T18:54:12.230Z,10.90
2023-04-16T18:59:14.861Z,11.90
2023-04-16T19:04:18.945Z,11.45
2023-04-16T19:09:21.608Z,10.95
2023-04-16T19:14:24.207Z,11.23
2023-04-16T19:19:30.033Z,11.00
2023-04-16T19:24:34.232Z,11.93
2023-04-16T19:29:37.212Z,11.10
2023-04-16T19:34:41.056Z,10.43
2023-04-16T19:39:43.660Z,10.25
2023-04-16T19:44:46.625Z,10.50
2023-04-16T19:49:50.499Z,10.40
2023-04-16T19:54:53.060Z,10.90
2023-04-16T19:59:55.696Z,10.75
2023-04-16T20:05:01.794Z,11.23
2023-04-16T20:10:04.660Z,11.52
2023-04-16T20:15:08.690Z,10.82
2023-04-16T20:20:15.689Z,10.70
2023-04-16T20:25:19.670Z,11.50
2023-04-16T20:30:24.416Z,11.55
2023-04-16T20:35:28.266Z,13.00
2023-04-16T20:40:31.130Z,12.57
2023-04-16T20:45:38.115Z,12.75
2023-04-16T20:50:41.995Z,12.30
2023-04-16T20:55:44.604Z,11.23
2023-04-16T21:00:50.064Z,14.40
2023-04-16T21:05:55.798Z,12.25
2023-04-16T21:10:58.338Z,11.77
2023-04-16T21:16:00.863Z,12.07
2023-04-16T21:21:05.041Z,11.65
2023-04-16T21:26:07.557Z,12.97
2023-04-16T21:31:10.179Z,12.10
2023-04-16T21:36:14.066Z,12.35
2023-04-16T21:41:16.626Z,12.20
2023-04-16T21:46:19.160Z,13.03
2023-04-16T21:51:28.827Z,12.05
2023-04-16T21:56:31.365Z,12.63
2023-04-16T22:01:33.938Z,13.50
2023-04-16T22:06:37.808Z,13.55
2023-04-16T22:11:40.669Z,13.57
2023-04-16T22:16:44.753Z,13.10
2023-04-16T22:21:49.253Z,13.87
2023-04-16T22:26:51.758Z,12.68
2023-04-16T22:31:54.976Z,13.02
2023-04-16T22:36:58.850Z,12.63
2023-04-16T22:42:01.835Z,14.07
2023-04-16T22:47:04.427Z,13.35
2023-04-16T22:52:08.231Z,13.87
2023-04-16T22:57:10.766Z,12.60
2023-04-16T23:02:13.301Z,12.93
2023-04-16T23:07:17.435Z,13.17
2023-04-16T23:12:19.917Z,12.30
2023-04-16T23:17:22.398Z,13.00
2023-04-16T23:22:26.201Z,13.55
2023-04-16T23:27:28.677Z,13.20
2023-04-16T23:32:31.275Z,12.55
2023-04-16T23:37:35.218Z,12.80
2023-04-16T23:42:37.705Z,13.57
2023-04-16T23:47:40.277Z,13.15
2023-04-16T23:52:44.135Z,13.27
2023-04-16T23:57:46.643Z,11.93
